Time;durP1;ratioP1;P1;durP2;ratioP2;P2;SDS_P1;SDS_P2;PMS_P1;PMS_P2;Temp;Humidity;BMP_temperature;BMP_pressure;BME280_temperature;BME280_humidity;BME280_pressure;Samples;Min_cycle;Max_cycle;Signal;HPM_P1;HPM_P2
2023/01/12 00:01:24;;;;;;;9.57;2.38;;;7.60;99.90;;;;;;5016472;28;20129;-84
2023/01/12 00:03:51;;;;;;;10.37;2.37;;;7.60;99.90;;;;;;5033934;28;20041;-82
2023/01/12 00:06:18;;;;;;;7.53;2.13;;;7.60;99.90;;;;;;5034180;28;20276;-83
2023/01/12 00:08:44;;;;;;;5.22;1.60;;;7.50;99.90;;;;;;5016453;28;20087;-83
2023/01/12 00:11:10;;;;;;;6.20;1.80;;;7.50;99.90;;;;;;4999919;28;20048;-82
2023/01/12 00:13:36;;;;;;;5.63;1.90;;;7.50;99.90;;;;;;5019087;28;20037;-81
2023/01/12 00:18:48;;;;;;;9.20;3.05;;;7.50;99.90;;;;;;5015972;28;20052;-84
2023/01/12 00:21:15;;;;;;;9.05;3.53;;;8.10;99.90;;;;;;5033702;28;20482;-84
2023/01/12 00:23:43;;;;;;;16.85;3.47;;;7.50;99.90;;;;;;5033586;28;20573;-82
2023/01/12 00:26:10;;;;;;;14.45;3.53;;;8.10;99.90;;;;;;4999752;28;20145;-84
2023/01/12 00:28:36;;;;;;;14.18;3.97;;;7.50;99.90;;;;;;5033839;28;20048;-84
2023/01/12 00:31:06;;;;;;;15.80;3.67;;;7.50;99.90;;;;;;5015769;28;20124;-83
2023/01/12 00:33:33;;;;;;;8.70;3.70;;;7.50;99.90;;;;;;4983979;28;20037;-84
2023/01/12 00:36:09;;;;;;;16.45;3.92;;;7.40;99.90;;;;;;5015516;28;20053;-83
2023/01/12 00:38:35;;;;;;;15.65;3.70;;;7.50;99.90;;;;;;4999584;28;20049;-83
2023/01/12 00:41:08;;;;;;;19.33;4.28;;;7.50;99.90;;;;;;4999334;28;20501;-84
2023/01/12 00:46:19;;;;;;;16.90;3.85;;;7.50;99.90;;;;;;5033594;28;20042;-83
2023/01/12 00:48:44;;;;;;;10.15;3.53;;;7.50;99.90;;;;;;5015931;28;20064;-84
2023/01/12 00:51:10;;;;;;;16.08;3.58;;;7.50;99.90;;;;;;5015647;28;20410;-83
2023/01/12 00:53:35;;;;;;;11.10;3.58;;;7.50;99.90;;;;;;5015969;28;20044;-82
2023/01/12 00:56:05;;;;;;;13.13;3.33;;;7.50;99.90;;;;;;4999662;28;20442;-84
2023/01/12 00:58:30;;;;;;;16.33;4.00;;;7.50;99.90;;;;;;4999708;28;20037;-83
2023/01/12 01:01:04;;;;;;;8.55;3.17;;;7.60;99.90;;;;;;5033545;28;20037;-83
2023/01/12 01:03:30;;;;;;;9.25;3.38;;;7.50;99.90;;;;;;4999361;28;20052;-83
2023/01/12 01:06:06;;;;;;;12.98;3.65;;;8.20;99.90;;;;;;5001458;28;20045;-84
2023/01/12 01:08:35;;;;;;;14.70;3.53;;;7.50;99.90;;;;;;5037472;28;20110;-83
2023/01/12 01:11:09;;;;;;;10.18;2.90;;;7.50;99.90;;;;;;5003164;28;20503;-83
2023/01/12 01:13:35;;;;;;;12.25;3.42;;;7.50;99.90;;;;;;5037041;28;20091;-81
2023/01/12 01:16:03;;;;;;;8.65;2.95;;;7.50;99.90;;;;;;5008596;28;20029;-82
2023/01/12 01:18:30;;;;;;;11.38;3.47;;;7.50;99.90;;;;;;5004572;28;20048;-83
2023/01/12 01:20:56;;;;;;;9.80;3.47;;;7.50;99.90;;;;;;5019007;28;20096;-82
2023/01/12 01:23:23;;;;;;;11.50;3.42;;;7.50;99.90;;;;;;5003157;28;20041;-83
2023/01/12 01:25:49;;;;;;;13.80;3.33;;;7.50;99.90;;;;;;5019428;28;20393;-82
2023/01/12 01:28:16;;;;;;;15.88;3.00;;;7.60;99.90;;;;;;5037124;28;20034;-83
2023/01/12 01:30:42;;;;;;;16.02;3.47;;;7.60;99.90;;;;;;5019235;28;20041;-84
2023/01/12 01:33:07;;;;;;;13.15;3.65;;;7.60;99.90;;;;;;5019285;28;20384;-84
2023/01/12 01:35:34;;;;;;;14.00;3.80;;;8.70;99.90;;;;;;5019349;28;20045;-84
2023/01/12 01:38:00;;;;;;;15.73;3.95;;;7.70;99.90;;;;;;5036495;28;20449;-81
2023/01/12 01:40:26;;;;;;;17.15;4.43;;;7.70;99.90;;;;;;5018865;28;20034;-82
2023/01/12 01:42:51;;;;;;;19.23;4.07;;;7.70;99.90;;;;;;5019171;28;20033;-83
2023/01/12 01:45:17;;;;;;;14.73;4.03;;;7.70;99.90;;;;;;5036756;28;20088;-83
2023/01/12 01:47:50;;;;;;;12.98;4.80;;;7.70;99.90;;;;;;5002189;28;20045;-84
2023/01/12 01:50:23;;;;;;;15.10;4.10;;;7.70;99.90;;;;;;5002762;28;20052;-84
2023/01/12 01:52:54;;;;;;;15.07;3.80;;;7.70;99.90;;;;;;5036477;28;20046;-84
2023/01/12 01:55:25;;;;;;;17.30;5.35;;;7.70;99.90;;;;;;5036343;28;20433;-83
2023/01/12 01:58:27;;;;;;;14.93;4.13;;;7.80;99.90;;;;;;5018579;28;20060;-84
2023/01/12 02:00:52;;;;;;;15.85;4.45;;;7.70;99.90;;;;;;4994628;28;20394;-84
2023/01/12 02:03:19;;;;;;;17.23;5.00;;;7.80;99.90;;;;;;5018585;28;20171;-83
2023/01/12 02:05:47;;;;;;;12.23;4.05;;;7.80;99.90;;;;;;5018398;28;20124;-84
2023/01/12 02:08:39;;;;;;;19.98;4.70;;;7.80;99.90;;;;;;5018347;28;20508;-83
2023/01/12 02:16:19;;;;;;;13.32;4.80;;;7.80;99.90;;;;;;5018552;28;20045;-83
2023/01/12 02:16:42;;;;;;;18.20;5.07;;;7.70;99.90;;;;;;5017870;28;20546;-83
2023/01/12 02:19:23;;;;;;;16.30;5.22;;;7.70;99.90;;;;;;5041031;28;20037;-84
2023/01/12 02:22:00;;;;;;;12.75;5.07;;;7.70;99.90;;;;;;5018760;28;20110;-85
2023/01/12 02:24:47;;;;;;;15.35;4.65;;;7.70;99.90;;;;;;5036059;28;20094;-84
2023/01/12 02:27:41;;;;;;;15.23;5.18;;;7.70;99.90;;;;;;5017918;28;20050;-84
2023/01/12 02:30:40;;;;;;;13.25;5.43;;;7.70;99.90;;;;;;5001675;28;20099;-84
2023/01/12 02:33:42;;;;;;;12.80;5.15;;;7.70;99.90;;;;;;5035941;28;20107;-83
2023/01/12 02:36:36;;;;;;;15.52;5.80;;;7.70;99.90;;;;;;5001549;28;20478;-83
2023/01/12 02:39:49;;;;;;;15.65;5.57;;;7.70;99.90;;;;;;5017669;28;20046;-83
2023/01/12 02:42:46;;;;;;;13.65;6.38;;;7.70;99.90;;;;;;5017714;28;20493;-82
2023/01/12 02:45:30;;;;;;;15.15;5.43;;;7.70;99.90;;;;;;5035342;28;20091;-84
2023/01/12 02:47:56;;;;;;;10.95;5.10;;;7.70;99.90;;;;;;5017794;28;20041;-83
2023/01/12 02:50:44;;;;;;;18.90;5.72;;;7.70;99.90;;;;;;5017670;28;20041;-82
2023/01/12 02:53:23;;;;;;;12.13;4.65;;;7.70;99.90;;;;;;5017550;28;20452;-82
2023/01/12 02:55:49;;;;;;;14.90;5.43;;;7.70;99.90;;;;;;5017746;28;20116;-82
2023/01/12 02:58:19;;;;;;;28.35;5.72;;;7.80;99.90;;;;;;5035507;28;20042;-84
2023/01/12 03:00:48;;;;;;;14.88;5.70;;;7.70;99.90;;;;;;5001004;28;20052;-85
2023/01/12 03:03:16;;;;;;;17.52;5.20;;;7.70;99.90;;;;;;5001218;28;20394;-84
2023/01/12 03:05:42;;;;;;;16.73;5.07;;;7.70;99.90;;;;;;5001139;28;20427;-85
2023/01/12 03:08:11;;;;;;;15.23;4.93;;;7.70;99.90;;;;;;5001468;28;20048;-82
2023/01/12 03:10:40;;;;;;;13.70;5.35;;;7.80;99.90;;;;;;5035133;28;20041;-84
2023/01/12 03:13:10;;;;;;;13.85;5.25;;;8.60;99.90;;;;;;5016993;28;20128;-82
2023/01/12 03:15:40;;;;;;;14.30;5.85;;;7.80;99.90;;;;;;5017488;28;20116;-83
2023/01/12 03:18:13;;;;;;;12.93;5.95;;;7.80;99.90;;;;;;5017474;28;20041;-83
2023/01/12 03:20:45;;;;;;;18.45;6.35;;;7.80;99.90;;;;;;5006913;28;20045;-80
2023/01/12 03:23:17;;;;;;;19.15;6.10;;;7.80;99.90;;;;;;5036611;28;20045;-84
2023/01/12 03:25:44;;;;;;;18.65;6.20;;;8.40;99.90;;;;;;5017005;28;20122;-84
2023/01/12 03:28:13;;;;;;;15.15;6.25;;;7.90;99.90;;;;;;5016492;28;20097;-83
2023/01/12 03:30:50;;;;;;;15.90;6.75;;;7.90;99.90;;;;;;5000860;28;20099;-83
2023/01/12 03:33:16;;;;;;;20.90;5.97;;;7.90;99.90;;;;;;5034835;28;20388;-82
2023/01/12 03:36:28;;;;;;;17.42;5.88;;;7.90;99.90;;;;;;5034228;28;20033;-84
2023/01/12 03:39:30;;;;;;;12.13;5.40;;;7.90;99.90;;;;;;5034728;28;20481;-82
2023/01/12 03:42:22;;;;;;;17.10;5.93;;;7.90;99.90;;;;;;5000295;28;20051;-85
2023/01/12 03:44:56;;;;;;;19.17;5.13;;;7.90;99.90;;;;;;5012670;28;20055;-83
2023/01/12 03:47:26;;;;;;;13.48;5.72;;;7.90;99.90;;;;;;5016771;28;20409;-85
2023/01/12 03:50:02;;;;;;;16.20;5.00;;;7.90;99.90;;;;;;5016809;28;20557;-85
2023/01/12 03:52:29;;;;;;;12.82;4.80;;;7.90;99.90;;;;;;5016407;28;20049;-83
2023/01/12 03:54:57;;;;;;;8.88;4.40;;;7.90;99.90;;;;;;5034203;28;20041;-84
2023/01/12 03:57:24;;;;;;;9.20;4.57;;;8.60;99.90;;;;;;5016609;28;20095;-81
2023/01/12 03:59:49;;;;;;;11.15;4.40;;;8.00;99.90;;;;;;5016153;28;20038;-83
2023/01/12 04:02:15;;;;;;;10.40;4.43;;;8.00;99.90;;;;;;5000248;28;20132;-85
2023/01/12 04:04:40;;;;;;;10.10;4.22;;;7.90;99.90;;;;;;5034163;28;20037;-82
2023/01/12 04:07:06;;;;;;;8.05;4.45;;;8.00;99.90;;;;;;5016259;28;20049;-83
2023/01/12 04:09:32;;;;;;;12.25;4.88;;;8.00;99.90;;;;;;5016326;28;20037;-85
2023/01/12 04:12:09;;;;;;;8.27;4.22;;;8.00;99.90;;;;;;4999824;28;20044;-81
2023/01/12 04:14:40;;;;;;;12.40;4.55;;;8.00;99.90;;;;;;4999818;28;20095;-82
2023/01/12 04:17:06;;;;;;;8.73;3.80;;;8.00;99.90;;;;;;5016174;28;20041;-84
2023/01/12 04:19:32;;;;;;;7.05;3.42;;;8.10;99.90;;;;;;5033608;28;20500;-82
2023/01/12 04:24:42;;;;;;;9.82;3.90;;;8.50;99.90;;;;;;5034492;28;20050;-83
2023/01/12 04:27:08;;;;;;;8.38;4.10;;;8.10;99.90;;;;;;4999605;28;20375;-84
2023/01/12 04:29:34;;;;;;;6.60;3.33;;;8.10;99.90;;;;;;5015892;28;20048;-83
2023/01/12 04:32:00;;;;;;;9.95;3.40;;;8.10;99.90;;;;;;5033685;28;20045;-84
2023/01/12 04:34:25;;;;;;;10.43;3.13;;;8.10;99.90;;;;;;5016332;28;20041;-82
2023/01/12 04:36:51;;;;;;;6.38;2.85;;;8.10;99.90;;;;;;5033359;28;20125;-85
2023/01/12 04:39:16;;;;;;;7.93;2.70;;;8.10;99.90;;;;;;5016555;28;20100;-82
2023/01/12 04:41:42;;;;;;;3.55;2.40;;;8.10;99.90;;;;;;5033678;28;20481;-82
2023/01/12 04:44:08;;;;;;;7.45;2.20;;;8.10;99.90;;;;;;4999683;28;20041;-82
2023/01/12 04:46:33;;;;;;;5.45;2.47;;;8.10;99.90;;;;;;5016209;28;20038;-81
2023/01/12 04:48:59;;;;;;;6.97;2.38;;;8.10;99.90;;;;;;5015843;28;20470;-84
2023/01/12 04:51:25;;;;;;;4.60;2.28;;;8.10;99.90;;;;;;5015915;28;20038;-81
2023/01/12 04:53:50;;;;;;;5.70;1.92;;;8.00;99.90;;;;;;5033576;28;20037;-83
2023/01/12 04:56:17;;;;;;;6.38;2.45;;;8.00;99.90;;;;;;5015682;28;20037;-85
2023/01/12 04:58:42;;;;;;;5.50;2.42;;;8.10;99.90;;;;;;5015717;28;20060;-84
2023/01/12 05:01:14;;;;;;;7.78;2.33;;;8.10;99.90;;;;;;5015571;28;20430;-84
2023/01/12 05:03:41;;;;;;;6.00;2.17;;;8.10;99.90;;;;;;5015908;28;20494;-85
2023/01/12 05:06:07;;;;;;;6.53;2.35;;;8.00;99.90;;;;;;5015868;28;20048;-83
2023/01/12 05:11:20;;;;;;;5.95;2.22;;;8.50;99.90;;;;;;5033375;28;20054;-85
2023/01/12 05:13:46;;;;;;;7.25;2.58;;;8.00;99.90;;;;;;5015956;28;20076;-84
2023/01/12 05:16:15;;;;;;;5.83;2.33;;;8.10;99.90;;;;;;5015649;28;20044;-83
2023/01/12 05:18:41;;;;;;;5.55;2.10;;;8.10;99.90;;;;;;5033270;28;20034;-85
2023/01/12 05:21:07;;;;;;;5.68;2.45;;;8.00;99.90;;;;;;5015860;28;20045;-83
2023/01/12 05:23:33;;;;;;;8.30;2.50;;;8.00;99.90;;;;;;5018205;28;20067;-80
2023/01/12 05:26:00;;;;;;;6.47;2.67;;;8.00;99.90;;;;;;5035238;28;20422;-83
2023/01/12 05:28:26;;;;;;;;;;;8.00;99.90;;;;;;5015464;28;20440;-82
2023/01/12 05:30:51;;;;;;;4.07;1.90;;;8.30;99.90;;;;;;5033245;28;19975;-86
2023/01/12 05:33:18;;;;;;;5.00;2.10;;;8.00;99.90;;;;;;5015301;28;20038;-84
2023/01/12 05:35:44;;;;;;;;;;;8.00;99.90;;;;;;5015860;28;20375;-83
2023/01/12 05:38:10;;;;;;;8.00;2.65;;;8.00;99.90;;;;;;5015341;28;19963;-82
2023/01/12 05:40:36;;;;;;;4.97;2.05;;;8.00;99.90;;;;;;5033214;28;20039;-86
2023/01/12 05:45:46;;;;;;;6.07;1.88;;;8.00;99.90;;;;;;5033090;28;20120;-83
2023/01/12 05:48:11;;;;;;;5.80;2.05;;;8.00;99.90;;;;;;4999154;28;20558;-81
2023/01/12 05:50:37;;;;;;;7.03;2.03;;;7.90;99.90;;;;;;5033103;28;20064;-85
2023/01/12 05:53:03;;;;;;;4.22;2.10;;;8.00;99.90;;;;;;5036648;28;20041;-83
2023/01/12 05:55:28;;;;;;;4.90;1.95;;;8.00;99.90;;;;;;5002619;28;20156;-82
2023/01/12 05:57:54;;;;;;;5.00;2.17;;;8.40;99.90;;;;;;5036562;28;20045;-83
2023/01/12 06:00:20;;;;;;;9.13;2.45;;;8.00;99.90;;;;;;5036547;28;20056;-84
2023/01/12 06:02:45;;;;;;;5.70;2.20;;;8.00;99.90;;;;;;5018895;28;20041;-83
2023/01/12 06:05:11;;;;;;;7.00;2.40;;;8.00;99.90;;;;;;5036412;28;20037;-85
2023/01/12 06:07:38;;;;;;;3.15;1.88;;;8.00;99.90;;;;;;5002489;28;20382;-81
2023/01/12 06:10:04;;;;;;;7.25;2.08;;;8.00;99.90;;;;;;5036327;28;20173;-85
2023/01/12 06:15:14;;;;;;;6.35;2.10;;;8.00;99.90;;;;;;5035942;28;20041;-83
2023/01/12 06:17:40;;;;;;;4.70;2.13;;;8.10;99.90;;;;;;5018282;28;20087;-83
2023/01/12 06:20:06;;;;;;;6.05;2.20;;;8.10;99.90;;;;;;5036005;28;20041;-85
2023/01/12 06:22:32;;;;;;;6.13;2.05;;;8.10;99.90;;;;;;5001924;28;20052;-83
2023/01/12 06:24:57;;;;;;;3.70;3.05;;;8.10;99.90;;;;;;5019003;28;20041;-81
2023/01/12 06:27:23;;;;;;;4.60;1.80;;;8.10;99.90;;;;;;5043357;28;20048;-86
2023/01/12 06:29:48;;;;;;;3.10;1.77;;;8.10;99.90;;;;;;5037211;28;20077;-85
2023/01/12 06:32:14;;;;;;;6.15;2.20;;;8.10;99.90;;;;;;5018467;28;20129;-84
2023/01/12 06:34:39;;;;;;;5.30;2.20;;;8.10;99.90;;;;;;5035872;28;20056;-84
2023/01/12 06:37:07;;;;;;;4.90;2.08;;;8.10;99.90;;;;;;5017814;28;20049;-85
2023/01/12 06:39:33;;;;;;;5.45;2.13;;;8.20;99.90;;;;;;5035971;28;20430;-83
2023/01/12 06:44:44;;;;;;;4.50;2.10;;;8.20;99.90;;;;;;5035665;28;20072;-84
2023/01/12 06:47:09;;;;;;;7.20;2.38;;;8.20;99.90;;;;;;5035541;28;20465;-81
2023/01/12 06:49:35;;;;;;;3.60;1.67;;;8.20;99.90;;;;;;5035513;28;20038;-84
2023/01/12 06:52:00;;;;;;;5.18;1.92;;;8.20;99.90;;;;;;5017767;28;20053;-82
2023/01/12 06:54:26;;;;;;;5.30;2.08;;;8.30;99.90;;;;;;5035502;28;20044;-81
2023/01/12 06:56:54;;;;;;;6.20;2.15;;;8.30;99.90;;;;;;5017631;28;20096;-83
2023/01/12 06:59:19;;;;;;;8.60;2.10;;;8.30;99.90;;;;;;5001096;28;20041;-83
2023/01/12 07:01:45;;;;;;;3.10;1.92;;;8.30;99.90;;;;;;5017773;28;20125;-83
2023/01/12 07:04:11;;;;;;;3.60;2.05;;;8.30;99.90;;;;;;5035351;28;20034;-81
2023/01/12 07:06:36;;;;;;;4.07;1.80;;;8.40;99.90;;;;;;5017667;28;20489;-81
2023/01/12 07:09:02;;;;;;;3.97;2.17;;;8.40;99.90;;;;;;5017675;28;20201;-83
2023/01/12 07:11:27;;;;;;;5.57;1.75;;;8.40;99.90;;;;;;5035041;28;20103;-83
2023/01/12 07:13:54;;;;;;;4.22;2.00;;;8.40;99.90;;;;;;5017180;28;20040;-84
2023/01/12 07:16:20;;;;;;;2.88;1.63;;;8.40;99.90;;;;;;5000887;28;20044;-82
2023/01/12 07:18:46;;;;;;;5.07;1.70;;;8.30;99.90;;;;;;5000902;28;20034;-82
2023/01/12 07:21:15;;;;;;;3.63;1.98;;;8.50;99.90;;;;;;5001010;28;20048;-82
2023/01/12 07:23:42;;;;;;;5.57;2.13;;;8.50;99.90;;;;;;5001017;28;20041;-82
2023/01/12 07:26:09;;;;;;;4.00;1.85;;;8.50;99.90;;;;;;5016812;28;20033;-82
2023/01/12 07:28:35;;;;;;;3.35;1.60;;;8.60;99.90;;;;;;5001361;28;20095;-81
2023/01/12 07:31:03;;;;;;;2.72;1.75;;;8.60;99.90;;;;;;5016801;28;20124;-83
2023/01/12 07:33:30;;;;;;;3.80;1.80;;;8.60;99.90;;;;;;5034793;28;20029;-81
2023/01/12 07:35:59;;;;;;;3.83;1.60;;;8.90;99.90;;;;;;5034549;28;20037;-82
2023/01/12 07:38:26;;;;;;;2.42;1.58;;;8.70;99.90;;;;;;5034715;28;20436;-83
2023/01/12 07:40:52;;;;;;;3.55;1.48;;;8.70;99.90;;;;;;5017089;28;20401;-81
2023/01/12 07:43:18;;;;;;;3.15;1.63;;;8.70;99.90;;;;;;5016897;28;20030;-84
2023/01/12 07:45:44;;;;;;;3.28;1.50;;;8.70;99.90;;;;;;5000346;28;20543;-85
2023/01/12 07:48:10;;;;;;;2.78;1.50;;;8.60;99.90;;;;;;5016622;28;20038;-84
2023/01/12 07:50:36;;;;;;;2.88;1.50;;;8.70;99.90;;;;;;4999957;28;20080;-82
2023/01/12 07:53:02;;;;;;;4.47;1.75;;;8.70;99.90;;;;;;5016645;28;20072;-83
2023/01/12 07:55:30;;;;;;;2.80;1.70;;;8.70;99.90;;;;;;5016437;28;20549;-81
2023/01/12 07:57:57;;;;;;;2.38;1.52;;;8.70;99.90;;;;;;5033962;28;20771;-81
2023/01/12 08:00:24;;;;;;;2.20;1.50;;;8.70;99.90;;;;;;5034187;28;20042;-84
2023/01/12 08:02:50;;;;;;;;;;;8.70;99.90;;;;;;5034574;28;20045;-86
2023/01/12 08:05:29;;;;;;;2.30;1.60;;;9.00;99.90;;;;;;5016385;28;20011;-86
2023/01/12 08:07:59;;;;;;;2.45;1.60;;;8.80;99.90;;;;;;4999815;28;20402;-82
2023/01/12 08:10:25;;;;;;;2.45;1.90;;;8.70;99.90;;;;;;5000134;28;20045;-82
2023/01/12 08:12:55;;;;;;;2.97;1.83;;;8.70;99.90;;;;;;5016232;28;20037;-84
2023/01/12 08:15:23;;;;;;;2.60;1.70;;;8.80;99.90;;;;;;5015807;28;20033;-86
2023/01/12 08:18:03;;;;;;;3.60;1.80;;;8.80;99.90;;;;;;4999823;28;20041;-83
2023/01/12 08:20:35;;;;;;;3.65;2.03;;;8.80;99.90;;;;;;5000500;28;20036;-84
2023/01/12 08:23:22;;;;;;;2.97;1.73;;;8.80;99.90;;;;;;5000456;28;20192;-82
2023/01/12 08:25:55;;;;;;;2.40;1.80;;;8.80;99.90;;;;;;5016440;28;20116;-85
2023/01/12 08:28:25;;;;;;;2.92;1.80;;;8.80;99.90;;;;;;5033979;28;20060;-82
2023/01/12 08:30:51;;;;;;;2.55;1.88;;;8.80;99.90;;;;;;5035232;28;20147;-85
2023/01/12 08:33:17;;;;;;;2.93;1.80;;;9.00;99.90;;;;;;5016265;28;20088;-81
2023/01/12 08:35:45;;;;;;;2.70;1.92;;;8.90;99.90;;;;;;5033592;28;20053;-83
2023/01/12 08:38:11;;;;;;;2.05;1.75;;;8.90;99.90;;;;;;5033847;28;20397;-83
2023/01/12 08:46:06;;;;;;;3.08;2.10;;;9.00;99.90;;;;;;5033652;28;20053;-82
2023/01/12 08:48:37;;;;;;;3.55;2.20;;;9.00;99.90;;;;;;4999441;28;20051;-82
2023/01/12 08:51:04;;;;;;;2.88;2.22;;;9.00;99.90;;;;;;5033469;28;20164;-80
2023/01/12 08:53:30;;;;;;;3.58;2.30;;;9.00;99.90;;;;;;5015936;28;20049;-81
2023/01/12 08:55:55;;;;;;;3.40;2.33;;;9.10;99.90;;;;;;5033481;28;20037;-83
2023/01/12 08:58:21;;;;;;;2.67;2.10;;;9.10;99.90;;;;;;5033451;28;20125;-81
2023/01/12 09:00:47;;;;;;;3.53;2.50;;;9.20;99.90;;;;;;5033537;28;20034;-81
2023/01/12 09:03:12;;;;;;;3.13;2.38;;;9.10;99.90;;;;;;5033277;28;20034;-81
2023/01/12 09:05:38;;;;;;;3.17;2.47;;;9.10;99.90;;;;;;5033467;28;20033;-83
2023/01/12 09:08:04;;;;;;;2.70;2.30;;;9.20;99.90;;;;;;5033319;28;20482;-82
2023/01/12 09:10:29;;;;;;;3.55;2.58;;;9.20;99.90;;;;;;5033386;28;20033;-82
2023/01/12 09:12:55;;;;;;;4.53;2.20;;;9.20;99.90;;;;;;5015671;28;20049;-84
2023/01/12 09:15:21;;;;;;;4.03;2.42;;;10.20;99.90;;;;;;4999557;28;20038;-82
2023/01/12 09:17:54;;;;;;;4.30;2.75;;;9.30;99.90;;;;;;5033429;28;20034;-83
2023/01/12 09:20:19;;;;;;;5.43;2.67;;;9.30;99.90;;;;;;5015507;28;20069;-80
2023/01/12 09:22:45;;;;;;;4.00;2.33;;;9.40;99.90;;;;;;5015767;28;20069;-81
2023/01/12 09:25:11;;;;;;;5.07;2.78;;;9.40;99.90;;;;;;5033183;28;20037;-80
2023/01/12 09:27:37;;;;;;;7.80;3.13;;;9.40;99.90;;;;;;5036419;28;20041;-82
2023/01/12 09:30:04;;;;;;;6.40;3.00;;;9.50;99.90;;;;;;5036737;28;20041;-81
2023/01/12 09:32:29;;;;;;;10.13;2.90;;;9.50;99.90;;;;;;5019425;28;20045;-83
2023/01/12 09:34:55;;;;;;;7.15;2.78;;;10.00;99.90;;;;;;5019176;28;20049;-82
2023/01/12 09:37:21;;;;;;;6.15;3.00;;;9.60;99.90;;;;;;5036612;28;20053;-81
2023/01/12 09:39:46;;;;;;;11.65;3.30;;;9.60;99.90;;;;;;5002740;28;20045;-81
2023/01/12 09:48:02;;;;;;;10.77;3.03;;;9.70;99.90;;;;;;5036776;28;20045;-82
2023/01/12 09:50:39;;;;;;;9.30;3.53;;;10.20;99.90;;;;;;5036672;28;20042;-86
2023/01/12 09:53:22;;;;;;;14.55;3.75;;;9.80;99.90;;;;;;5036619;28;20041;-82
2023/01/12 09:56:07;;;;;;;9.60;3.25;;;9.90;99.90;;;;;;5036589;28;20041;-82
2023/01/12 09:59:02;;;;;;;13.20;3.65;;;10.00;99.90;;;;;;5036569;28;20039;-81
2023/01/12 10:01:28;;;;;;;21.55;4.03;;;10.00;99.90;;;;;;5036572;28;20047;-82
2023/01/12 10:03:55;;;;;;;16.58;3.88;;;10.10;99.90;;;;;;5036463;28;20453;-90
2023/01/12 10:06:20;;;;;;;21.90;3.75;;;10.20;99.90;;;;;;5018738;28;20125;-81
2023/01/12 10:08:55;;;;;;;25.05;4.85;;;10.20;99.90;;;;;;5036326;28;20120;-82
2023/01/12 10:11:48;;;;;;;19.30;4.25;;;10.30;99.90;;;;;;5036352;28;20470;-81
2023/01/12 10:14:32;;;;;;;26.92;4.10;;;10.40;99.90;;;;;;5002266;28;20041;-81
2023/01/12 10:17:22;;;;;;;24.05;4.45;;;10.90;99.90;;;;;;5036294;28;20040;-84
2023/01/12 10:20:03;;;;;;;23.77;4.43;;;10.50;99.90;;;;;;5018527;28;20504;-84
2023/01/12 10:22:37;;;;;;;21.00;4.05;;;10.50;99.90;;;;;;5035868;28;20049;-82
2023/01/12 10:25:20;;;;;;;15.38;3.70;;;10.50;99.90;;;;;;5035939;28;20559;-84
2023/01/12 10:27:48;;;;;;;17.65;3.60;;;10.50;99.90;;;;;;5036079;28;20045;-81
2023/01/12 10:30:27;;;;;;;18.30;3.28;;;10.50;99.90;;;;;;5018360;28;20458;-80
2023/01/12 10:32:53;;;;;;;15.68;4.15;;;10.50;99.90;;;;;;5037078;28;20107;-80
2023/01/12 10:35:24;;;;;;;13.15;3.15;;;10.60;99.90;;;;;;5021304;28;20120;-84
2023/01/12 10:37:55;;;;;;;13.38;3.00;;;10.70;99.90;;;;;;5017598;28;20536;-82
2023/01/12 10:40:31;;;;;;;13.90;2.80;;;10.70;99.90;;;;;;5035857;28;20038;-83
2023/01/12 10:43:18;;;;;;;18.42;3.15;;;10.70;99.90;;;;;;5018144;28;20052;-81
2023/01/12 10:46:05;;;;;;;12.43;3.03;;;10.80;99.90;;;;;;5018159;28;20362;-82
2023/01/12 10:48:31;;;;;;;14.43;3.22;;;10.80;99.90;;;;;;5035068;28;20053;-84
2023/01/12 10:51:02;;;;;;;17.50;2.83;;;10.70;99.90;;;;;;5017561;28;20068;-84
2023/01/12 10:53:54;;;;;;;12.20;2.63;;;10.80;99.90;;;;;;5001436;28;20044;-82
2023/01/12 10:56:32;;;;;;;10.35;2.53;;;10.70;99.90;;;;;;5002169;28;20397;-86
2023/01/12 10:59:12;;;;;;;7.55;2.83;;;10.80;99.90;;;;;;5017601;28;20478;-82
2023/01/12 11:01:48;;;;;;;11.52;2.30;;;10.80;99.90;;;;;;5001110;28;20045;-84
2023/01/12 11:04:22;;;;;;;10.23;2.65;;;10.80;99.90;;;;;;5021708;28;20101;-82
2023/01/12 11:07:09;;;;;;;9.93;2.22;;;10.70;99.90;;;;;;5006845;28;20131;-84
2023/01/12 11:09:35;;;;;;;8.57;2.10;;;10.70;99.90;;;;;;5035256;28;20057;-83
2023/01/12 11:12:19;;;;;;;14.50;2.75;;;10.70;99.90;;;;;;5017318;28;20296;-83
2023/01/12 11:14:59;;;;;;;12.80;3.90;;;10.70;99.90;;;;;;5017277;28;20095;-81
2023/01/12 11:18:00;;;;;;;13.57;3.58;;;10.70;99.90;;;;;;5017729;28;20469;-82
2023/01/12 11:20:49;;;;;;;10.85;3.00;;;10.70;99.90;;;;;;4938711;29;20047;-81
2023/01/12 11:24:08;;;;;;;14.88;3.17;;;10.80;99.90;;;;;;5007757;28;20589;-80
2023/01/12 11:26:45;;;;;;;21.08;3.45;;;10.80;99.90;;;;;;5002694;28;20124;-84
2023/01/12 11:29:45;;;;;;;11.63;3.03;;;10.80;99.90;;;;;;5034893;28;20441;-80
2023/01/12 11:32:31;;;;;;;15.93;3.30;;;10.80;99.90;;;;;;5034655;28;20081;-81
2023/01/12 11:35:16;;;;;;;12.73;3.05;;;10.80;99.90;;;;;;5034489;28;20061;-80
2023/01/12 11:37:42;;;;;;;16.70;3.25;;;10.80;99.90;;;;;;5034388;28;20096;-80
2023/01/12 11:40:24;;;;;;;19.20;3.22;;;10.80;99.90;;;;;;5034717;28;20049;-81
2023/01/12 11:45:53;;;;;;;15.07;3.33;;;10.90;99.90;;;;;;5016977;28;20430;-80
2023/01/12 11:48:29;;;;;;;16.77;3.40;;;10.90;99.90;;;;;;5034076;28;20430;-81
2023/01/12 11:50:56;;;;;;;14.93;3.35;;;10.90;99.90;;;;;;5034401;28;20045;-82
2023/01/12 11:53:24;;;;;;;13.55;2.95;;;10.90;99.90;;;;;;5016688;28;20095;-80
2023/01/12 11:56:11;;;;;;;19.95;3.40;;;11.00;99.90;;;;;;5034113;28;20065;-80
2023/01/12 11:59:02;;;;;;;17.63;2.95;;;11.00;99.90;;;;;;5034413;28;20041;-80
2023/01/12 12:01:45;;;;;;;15.52;4.47;;;11.00;99.90;;;;;;5034276;28;20048;-80
2023/01/12 12:04:22;;;;;;;14.32;3.05;;;11.00;99.90;;;;;;5027830;28;20047;-80
2023/01/12 12:07:06;;;;;;;;;;;11.00;99.90;;;;;;5034632;28;20096;-82
2023/01/12 12:09:53;;;;;;;17.98;4.07;;;11.10;99.90;;;;;;5016594;28;19964;-83
2023/01/12 12:12:44;;;;;;;14.17;2.77;;;11.10;99.90;;;;;;5034051;28;20125;-81
2023/01/12 12:15:24;;;;;;;13.75;3.25;;;11.10;99.90;;;;;;5018361;28;20065;-81
2023/01/12 12:18:04;;;;;;;15.40;3.35;;;11.10;99.90;;;;;;5015145;28;20041;-81
2023/01/12 12:20:35;;;;;;;15.70;3.80;;;11.10;99.90;;;;;;5031895;28;20482;-80
2023/01/12 12:23:16;;;;;;;16.85;3.22;;;11.10;99.90;;;;;;5031653;28;20052;-80
2023/01/12 12:25:55;;;;;;;17.27;3.83;;;11.10;99.90;;;;;;5032135;28;20267;-80
2023/01/12 12:28:29;;;;;;;19.75;4.18;;;11.10;99.90;;;;;;5031898;28;20037;-80
2023/01/12 12:31:12;;;;;;;16.25;3.13;;;11.10;99.90;;;;;;5031987;28;20052;-80
2023/01/12 12:34:09;;;;;;;21.15;3.75;;;11.10;99.90;;;;;;4999299;28;20037;-80
2023/01/12 12:36:46;;;;;;;15.25;3.42;;;11.00;99.90;;;;;;5033255;28;20564;-80
2023/01/12 12:39:29;;;;;;;23.08;3.55;;;11.00;99.90;;;;;;5016215;28;20034;-80
2023/01/12 12:45:40;;;;;;;15.02;2.88;;;11.00;99.90;;;;;;5018467;28;20488;-80
2023/01/12 12:48:18;;;;;;;14.40;3.03;;;11.00;99.90;;;;;;5033633;28;20108;-80
2023/01/12 12:50:56;;;;;;;13.27;3.97;;;11.10;99.90;;;;;;5033311;28;20033;-80
2023/01/12 12:53:30;;;;;;;18.30;4.38;;;11.00;99.90;;;;;;5015964;28;20092;-80
2023/01/12 12:55:58;;;;;;;21.58;4.05;;;11.00;99.90;;;;;;5033578;28;20065;-80
2023/01/12 12:58:28;;;;;;;20.10;3.78;;;11.00;99.90;;;;;;5033556;28;20045;-80
2023/01/12 13:01:14;;;;;;;22.13;4.20;;;11.00;99.90;;;;;;5035983;28;20045;-80
2023/01/12 13:03:40;;;;;;;19.00;4.10;;;11.10;99.90;;;;;;5037174;28;20033;-80
2023/01/12 13:06:30;;;;;;;18.85;3.83;;;11.10;99.90;;;;;;5037570;28;20044;-81
2023/01/12 13:09:22;;;;;;;16.52;3.65;;;11.10;99.90;;;;;;5037249;28;20098;-80
2023/01/12 13:11:57;;;;;;;18.35;3.97;;;11.20;99.90;;;;;;5037460;28;20046;-80
2023/01/12 13:14:40;;;;;;;15.57;3.60;;;11.10;99.90;;;;;;5020426;28;20515;-80
2023/01/12 13:17:17;;;;;;;24.25;4.47;;;11.10;99.90;;;;;;5037972;28;20044;-80
2023/01/12 13:19:47;;;;;;;;;;;11.20;99.90;;;;;;5020515;28;20383;-79
2023/01/12 13:22:43;;;;;;;17.75;3.80;;;11.20;99.90;;;;;;5037581;28;19917;-85
2023/01/12 13:25:23;;;;;;;21.42;3.53;;;11.20;99.90;;;;;;5038099;28;20045;-83
2023/01/12 13:27:51;;;;;;;21.75;3.60;;;11.20;99.90;;;;;;5037081;28;20037;-84
2023/01/12 13:30:25;;;;;;;20.70;3.13;;;11.20;99.90;;;;;;5019445;28;20111;-81
2023/01/12 13:32:57;;;;;;;15.18;3.08;;;11.20;99.90;;;;;;5019424;28;20051;-80
2023/01/12 13:35:33;;;;;;;14.80;3.47;;;11.10;99.90;;;;;;5019495;28;20045;-81
2023/01/12 13:38:23;;;;;;;18.17;3.45;;;11.10;99.90;;;;;;5018990;28;20056;-82
2023/01/12 13:40:49;;;;;;;17.52;3.22;;;11.10;99.90;;;;;;5037376;28;20044;-80
2023/01/12 13:43:29;;;;;;;14.03;3.27;;;11.10;99.90;;;;;;5019304;28;20041;-82
2023/01/12 13:45:59;;;;;;;11.75;2.63;;;11.00;99.90;;;;;;5019247;28;20320;-84
2023/01/12 13:48:27;;;;;;;9.88;2.67;;;11.00;99.90;;;;;;5019377;28;20046;-80
2023/01/12 13:51:11;;;;;;;13.43;3.05;;;11.10;99.90;;;;;;5036615;28;20045;-82
2023/01/12 13:53:36;;;;;;;13.00;3.13;;;11.10;99.90;;;;;;5036535;28;20037;-82
2023/01/12 13:56:05;;;;;;;7.38;2.47;;;11.00;99.90;;;;;;5018706;28;20087;-80